sensor_id;sensor_type;location;lat;lon;timestamp;P1;durP1;ratioP1;P2;durP2;ratioP2
69026;SDS011;56080;47.594;19.116;2022-10-17T00:02:36;1248.20;;;999.90;;
69026;SDS011;56080;47.594;19.116;2022-10-17T00:07:37;1216.40;;;999.50;;
69026;SDS011;56080;47.594;19.116;2022-10-17T00:12:36;1216.40;;;999.50;;
69026;SDS011;56080;47.594;19.116;2022-10-17T00:17:36;1282.70;;;989.10;;
69026;SDS011;56080;47.594;19.116;2022-10-17T00:22:36;1282.70;;;989.10;;
69026;SDS011;56080;47.594;19.116;2022-10-17T00:27:37;1387.50;;;967.90;;
69026;SDS011;56080;47.594;19.116;2022-10-17T00:37:36;1329.50;;;944.50;;
69026;SDS011;56080;47.594;19.116;2022-10-17T00:42:37;1329.50;;;944.50;;
69026;SDS011;56080;47.594;19.116;2022-10-17T00:47:37;1315.00;;;939.30;;
69026;SDS011;56080;47.594;19.116;2022-10-17T00:52:37;1315.00;;;939.30;;
69026;SDS011;56080;47.594;19.116;2022-10-17T00:57:36;1313.60;;;953.90;;
69026;SDS011;56080;47.594;19.116;2022-10-17T01:02:36;1313.60;;;953.90;;
69026;SDS011;56080;47.594;19.116;2022-10-17T01:07:38;1278.60;;;956.60;;
69026;SDS011;56080;47.594;19.116;2022-10-17T01:12:47;1278.60;;;956.60;;
69026;SDS011;56080;47.594;19.116;2022-10-17T01:23:03;1357.20;;;975.50;;
69026;SDS011;56080;47.594;19.116;2022-10-17T01:27:48;1361.20;;;945.20;;
69026;SDS011;56080;47.594;19.116;2022-10-17T01:32:48;1361.20;;;945.20;;
69026;SDS011;56080;47.594;19.116;2022-10-17T01:37:47;1352.80;;;974.70;;
69026;SDS011;56080;47.594;19.116;2022-10-17T01:42:40;1352.80;;;974.70;;
69026;SDS011;56080;47.594;19.116;2022-10-17T01:47:38;1345.90;;;999.90;;
69026;SDS011;56080;47.594;19.116;2022-10-17T01:52:41;1345.90;;;999.90;;
69026;SDS011;56080;47.594;19.116;2022-10-17T01:57:43;1402.20;;;999.90;;
69026;SDS011;56080;47.594;19.116;2022-10-17T02:02:36;1402.20;;;999.90;;
69026;SDS011;56080;47.594;19.116;2022-10-17T02:07:37;1393.40;;;966.70;;
69026;SDS011;56080;47.594;19.116;2022-10-17T02:12:39;1393.40;;;966.70;;
69026;SDS011;56080;47.594;19.116;2022-10-17T02:32:59;1382.30;;;951.30;;
69026;SDS011;56080;47.594;19.116;2022-10-17T02:37:38;1373.90;;;911.50;;
69026;SDS011;56080;47.594;19.116;2022-10-17T02:42:38;1373.90;;;911.50;;
69026;SDS011;56080;47.594;19.116;2022-10-17T02:57:40;1361.60;;;962.30;;
69026;SDS011;56080;47.594;19.116;2022-10-17T03:02:37;1361.60;;;962.30;;
69026;SDS011;56080;47.594;19.116;2022-10-17T03:07:36;1334.50;;;951.50;;
69026;SDS011;56080;47.594;19.116;2022-10-17T03:12:36;1334.50;;;951.50;;
69026;SDS011;56080;47.594;19.116;2022-10-17T03:17:36;1328.30;;;970.40;;
69026;SDS011;56080;47.594;19.116;2022-10-17T03:22:36;1328.30;;;970.40;;
69026;SDS011;56080;47.594;19.116;2022-10-17T03:27:36;1349.50;;;970.30;;
69026;SDS011;56080;47.594;19.116;2022-10-17T03:32:36;1349.50;;;970.30;;
69026;SDS011;56080;47.594;19.116;2022-10-17T03:37:36;1348.60;;;961.20;;
69026;SDS011;56080;47.594;19.116;2022-10-17T03:42:36;1348.60;;;961.20;;
69026;SDS011;56080;47.594;19.116;2022-10-17T03:47:37;1360.70;;;970.80;;
69026;SDS011;56080;47.594;19.116;2022-10-17T03:52:36;1360.70;;;970.80;;
69026;SDS011;56080;47.594;19.116;2022-10-17T03:57:36;1362.90;;;921.60;;
69026;SDS011;56080;47.594;19.116;2022-10-17T04:02:36;1362.90;;;921.60;;
69026;SDS011;56080;47.594;19.116;2022-10-17T04:07:36;1376.70;;;946.90;;
69026;SDS011;56080;47.594;19.116;2022-10-17T04:12:36;1376.70;;;946.90;;
69026;SDS011;56080;47.594;19.116;2022-10-17T04:17:36;1401.00;;;945.40;;
69026;SDS011;56080;47.594;19.116;2022-10-17T04:22:36;1401.00;;;945.40;;
69026;SDS011;56080;47.594;19.116;2022-10-17T04:27:36;1386.20;;;927.10;;
69026;SDS011;56080;47.594;19.116;2022-10-17T04:32:36;1386.20;;;927.10;;
69026;SDS011;56080;47.594;19.116;2022-10-17T04:37:37;1364.00;;;955.90;;
69026;SDS011;56080;47.594;19.116;2022-10-17T04:42:37;1364.00;;;955.90;;
69026;SDS011;56080;47.594;19.116;2022-10-17T04:47:36;1421.50;;;934.20;;
69026;SDS011;56080;47.594;19.116;2022-10-17T04:52:36;1421.50;;;934.20;;
69026;SDS011;56080;47.594;19.116;2022-10-17T04:57:36;1305.30;;;934.60;;
69026;SDS011;56080;47.594;19.116;2022-10-17T05:02:36;1305.30;;;934.60;;
69026;SDS011;56080;47.594;19.116;2022-10-17T05:12:37;1186.10;;;959.70;;
69026;SDS011;56080;47.594;19.116;2022-10-17T05:17:36;1164.00;;;946.80;;
69026;SDS011;56080;47.594;19.116;2022-10-17T05:22:36;1164.00;;;946.80;;
69026;SDS011;56080;47.594;19.116;2022-10-17T05:27:36;1177.70;;;944.80;;
69026;SDS011;56080;47.594;19.116;2022-10-17T05:32:36;1177.70;;;944.80;;
69026;SDS011;56080;47.594;19.116;2022-10-17T05:37:38;1210.50;;;964.30;;
69026;SDS011;56080;47.594;19.116;2022-10-17T05:42:36;1210.50;;;964.30;;
69026;SDS011;56080;47.594;19.116;2022-10-17T05:47:36;1214.20;;;942.10;;
69026;SDS011;56080;47.594;19.116;2022-10-17T05:52:36;1214.20;;;942.10;;
69026;SDS011;56080;47.594;19.116;2022-10-17T05:57:36;1272.00;;;955.10;;
69026;SDS011;56080;47.594;19.116;2022-10-17T06:02:36;1272.00;;;955.10;;
69026;SDS011;56080;47.594;19.116;2022-10-17T06:07:36;1345.90;;;976.50;;
69026;SDS011;56080;47.594;19.116;2022-10-17T06:12:36;1345.90;;;976.50;;
69026;SDS011;56080;47.594;19.116;2022-10-17T06:17:37;1250.00;;;961.20;;
69026;SDS011;56080;47.594;19.116;2022-10-17T06:22:36;1250.00;;;961.20;;
69026;SDS011;56080;47.594;19.116;2022-10-17T06:27:36;1260.50;;;976.30;;
69026;SDS011;56080;47.594;19.116;2022-10-17T06:32:36;1260.50;;;976.30;;
69026;SDS011;56080;47.594;19.116;2022-10-17T06:37:39;1362.80;;;955.80;;
69026;SDS011;56080;47.594;19.116;2022-10-17T06:42:36;1362.80;;;955.80;;
69026;SDS011;56080;47.594;19.116;2022-10-17T06:47:36;1410.60;;;897.70;;
69026;SDS011;56080;47.594;19.116;2022-10-17T06:52:36;1410.60;;;897.70;;
69026;SDS011;56080;47.594;19.116;2022-10-17T06:57:36;1429.50;;;837.70;;
69026;SDS011;56080;47.594;19.116;2022-10-17T07:02:36;1429.50;;;837.70;;
69026;SDS011;56080;47.594;19.116;2022-10-17T07:07:39;1435.30;;;878.50;;
69026;SDS011;56080;47.594;19.116;2022-10-17T07:12:36;1435.30;;;878.50;;
69026;SDS011;56080;47.594;19.116;2022-10-17T07:17:36;1412.20;;;942.90;;
69026;SDS011;56080;47.594;19.116;2022-10-17T07:22:36;1412.20;;;942.90;;
69026;SDS011;56080;47.594;19.116;2022-10-17T07:27:36;1392.00;;;840.40;;
69026;SDS011;56080;47.594;19.116;2022-10-17T07:32:36;1392.00;;;840.40;;
69026;SDS011;56080;47.594;19.116;2022-10-17T07:37:36;1403.20;;;889.10;;
69026;SDS011;56080;47.594;19.116;2022-10-17T07:42:37;1403.20;;;889.10;;
69026;SDS011;56080;47.594;19.116;2022-10-17T07:47:36;1452.30;;;924.10;;
69026;SDS011;56080;47.594;19.116;2022-10-17T07:52:36;1452.30;;;924.10;;
69026;SDS011;56080;47.594;19.116;2022-10-17T07:57:36;1539.80;;;929.90;;
69026;SDS011;56080;47.594;19.116;2022-10-17T08:02:36;1539.80;;;929.90;;
69026;SDS011;56080;47.594;19.116;2022-10-17T08:07:40;1579.90;;;896.10;;
69026;SDS011;56080;47.594;19.116;2022-10-17T08:12:36;1579.90;;;896.10;;
69026;SDS011;56080;47.594;19.116;2022-10-17T08:17:37;1600.50;;;832.10;;
69026;SDS011;56080;47.594;19.116;2022-10-17T08:22:36;1600.50;;;832.10;;
69026;SDS011;56080;47.594;19.116;2022-10-17T08:27:37;1639.20;;;884.40;;
69026;SDS011;56080;47.594;19.116;2022-10-17T08:32:37;1639.20;;;884.40;;
69026;SDS011;56080;47.594;19.116;2022-10-17T08:37:36;1685.10;;;870.60;;
69026;SDS011;56080;47.594;19.116;2022-10-17T08:42:52;1685.10;;;870.60;;
69026;SDS011;56080;47.594;19.116;2022-10-17T08:47:44;1761.50;;;848.30;;
69026;SDS011;56080;47.594;19.116;2022-10-17T08:52:47;1761.50;;;848.30;;
69026;SDS011;56080;47.594;19.116;2022-10-17T08:57:37;1791.40;;;886.20;;
69026;SDS011;56080;47.594;19.116;2022-10-17T09:07:46;1812.70;;;931.90;;
69026;SDS011;56080;47.594;19.116;2022-10-17T09:12:44;1812.70;;;931.90;;
69026;SDS011;56080;47.594;19.116;2022-10-17T09:17:44;1763.60;;;820.30;;
69026;SDS011;56080;47.594;19.116;2022-10-17T09:28:02;1812.70;;;868.40;;
69026;SDS011;56080;47.594;19.116;2022-10-17T09:32:36;1812.70;;;868.40;;
69026;SDS011;56080;47.594;19.116;2022-10-17T09:37:39;1827.00;;;874.60;;
69026;SDS011;56080;47.594;19.116;2022-10-17T09:42:37;1827.00;;;874.60;;
69026;SDS011;56080;47.594;19.116;2022-10-17T09:47:38;1832.50;;;919.10;;
69026;SDS011;56080;47.594;19.116;2022-10-17T09:52:39;1832.50;;;919.10;;
69026;SDS011;56080;47.594;19.116;2022-10-17T10:02:37;1856.30;;;999.90;;
69026;SDS011;56080;47.594;19.116;2022-10-17T10:07:42;1787.30;;;999.90;;
69026;SDS011;56080;47.594;19.116;2022-10-17T10:12:38;1787.30;;;999.90;;
69026;SDS011;56080;47.594;19.116;2022-10-17T10:17:46;1735.60;;;999.90;;
69026;SDS011;56080;47.594;19.116;2022-10-17T10:22:36;1735.60;;;999.90;;
69026;SDS011;56080;47.594;19.116;2022-10-17T10:27:38;1711.90;;;999.90;;
69026;SDS011;56080;47.594;19.116;2022-10-17T10:32:39;1711.90;;;999.90;;
69026;SDS011;56080;47.594;19.116;2022-10-17T10:37:42;1731.00;;;999.90;;
69026;SDS011;56080;47.594;19.116;2022-10-17T10:42:40;1731.00;;;999.90;;
69026;SDS011;56080;47.594;19.116;2022-10-17T10:47:38;1727.20;;;999.90;;
69026;SDS011;56080;47.594;19.116;2022-10-17T10:52:42;1727.20;;;999.90;;
69026;SDS011;56080;47.594;19.116;2022-10-17T10:57:39;1699.20;;;999.90;;
69026;SDS011;56080;47.594;19.116;2022-10-17T11:02:50;1699.20;;;999.90;;
69026;SDS011;56080;47.594;19.116;2022-10-17T11:12:41;1659.80;;;999.90;;
69026;SDS011;56080;47.594;19.116;2022-10-17T11:17:39;1759.10;;;999.90;;
69026;SDS011;56080;47.594;19.116;2022-10-17T11:22:42;1759.10;;;999.90;;
69026;SDS011;56080;47.594;19.116;2022-10-17T11:27:38;1722.70;;;999.90;;
69026;SDS011;56080;47.594;19.116;2022-10-17T11:32:41;1722.70;;;999.90;;
69026;SDS011;56080;47.594;19.116;2022-10-17T11:37:39;1644.30;;;999.90;;
69026;SDS011;56080;47.594;19.116;2022-10-17T11:42:44;1644.30;;;999.90;;
69026;SDS011;56080;47.594;19.116;2022-10-17T11:47:47;1638.20;;;999.90;;
69026;SDS011;56080;47.594;19.116;2022-10-17T11:52:51;1638.20;;;999.90;;
69026;SDS011;56080;47.594;19.116;2022-10-17T11:57:41;1681.80;;;999.90;;
69026;SDS011;56080;47.594;19.116;2022-10-17T12:07:49;1687.30;;;999.90;;
69026;SDS011;56080;47.594;19.116;2022-10-17T12:12:38;1687.30;;;999.90;;
69026;SDS011;56080;47.594;19.116;2022-10-17T12:17:39;1684.50;;;999.90;;
69026;SDS011;56080;47.594;19.116;2022-10-17T12:22:36;1684.50;;;999.90;;
69026;SDS011;56080;47.594;19.116;2022-10-17T12:27:46;1695.20;;;999.90;;
69026;SDS011;56080;47.594;19.116;2022-10-17T12:42:46;1699.70;;;999.90;;
69026;SDS011;56080;47.594;19.116;2022-10-17T12:47:37;1698.20;;;930.60;;
69026;SDS011;56080;47.594;19.116;2022-10-17T12:57:58;1649.60;;;787.90;;
69026;SDS011;56080;47.594;19.116;2022-10-17T13:07:37;1662.80;;;793.20;;
69026;SDS011;56080;47.594;19.116;2022-10-17T13:12:37;1662.80;;;793.20;;
69026;SDS011;56080;47.594;19.116;2022-10-17T13:17:38;1694.30;;;837.00;;
69026;SDS011;56080;47.594;19.116;2022-10-17T13:22:43;1694.30;;;837.00;;
69026;SDS011;56080;47.594;19.116;2022-10-17T13:27:41;1699.70;;;845.50;;
69026;SDS011;56080;47.594;19.116;2022-10-17T13:32:44;1699.70;;;845.50;;
69026;SDS011;56080;47.594;19.116;2022-10-17T13:37:36;1732.20;;;902.90;;
69026;SDS011;56080;47.594;19.116;2022-10-17T13:47:38;1752.20;;;941.20;;
69026;SDS011;56080;47.594;19.116;2022-10-17T13:52:37;1752.20;;;941.20;;
69026;SDS011;56080;47.594;19.116;2022-10-17T13:57:37;1735.00;;;999.90;;
69026;SDS011;56080;47.594;19.116;2022-10-17T14:02:39;1735.00;;;999.90;;
69026;SDS011;56080;47.594;19.116;2022-10-17T14:07:45;1708.90;;;999.90;;
69026;SDS011;56080;47.594;19.116;2022-10-17T14:12:36;1708.90;;;999.90;;
69026;SDS011;56080;47.594;19.116;2022-10-17T14:17:37;1700.40;;;999.90;;
69026;SDS011;56080;47.594;19.116;2022-10-17T14:22:37;1700.40;;;999.90;;
69026;SDS011;56080;47.594;19.116;2022-10-17T14:27:51;1723.60;;;999.90;;
69026;SDS011;56080;47.594;19.116;2022-10-17T14:32:37;1723.60;;;999.90;;
69026;SDS011;56080;47.594;19.116;2022-10-17T14:37:47;1730.20;;;927.90;;
69026;SDS011;56080;47.594;19.116;2022-10-17T14:42:37;1730.20;;;927.90;;
69026;SDS011;56080;47.594;19.116;2022-10-17T14:47:48;1743.00;;;877.80;;
69026;SDS011;56080;47.594;19.116;2022-10-17T14:52:38;1743.00;;;877.80;;
69026;SDS011;56080;47.594;19.116;2022-10-17T14:57:40;1749.00;;;897.70;;
69026;SDS011;56080;47.594;19.116;2022-10-17T15:02:37;1749.00;;;897.70;;
69026;SDS011;56080;47.594;19.116;2022-10-17T15:07:36;1749.00;;;897.70;;
69026;SDS011;56080;47.594;19.116;2022-10-17T15:12:38;1749.90;;;923.10;;
69026;SDS011;56080;47.594;19.116;2022-10-17T15:17:37;1749.90;;;923.10;;
69026;SDS011;56080;47.594;19.116;2022-10-17T15:22:36;1788.70;;;941.10;;
69026;SDS011;56080;47.594;19.116;2022-10-17T15:27:38;1788.70;;;941.10;;
69026;SDS011;56080;47.594;19.116;2022-10-17T15:32:36;1763.90;;;999.90;;
69026;SDS011;56080;47.594;19.116;2022-10-17T15:37:42;1739.00;;;999.90;;
69026;SDS011;56080;47.594;19.116;2022-10-17T15:42:37;1739.00;;;999.90;;
69026;SDS011;56080;47.594;19.116;2022-10-17T15:47:37;1739.00;;;999.90;;
69026;SDS011;56080;47.594;19.116;2022-10-17T15:52:36;1772.40;;;999.90;;
69026;SDS011;56080;47.594;19.116;2022-10-17T15:57:39;1772.40;;;999.90;;
69026;SDS011;56080;47.594;19.116;2022-10-17T16:02:36;1752.70;;;999.90;;
69026;SDS011;56080;47.594;19.116;2022-10-17T16:07:36;1752.70;;;999.90;;
69026;SDS011;56080;47.594;19.116;2022-10-17T16:17:36;1742.20;;;999.90;;
69026;SDS011;56080;47.594;19.116;2022-10-17T16:22:41;1731.70;;;999.90;;
69026;SDS011;56080;47.594;19.116;2022-10-17T16:27:36;1731.70;;;999.90;;
69026;SDS011;56080;47.594;19.116;2022-10-17T16:32:37;1681.90;;;999.90;;
69026;SDS011;56080;47.594;19.116;2022-10-17T16:37:36;1681.90;;;999.90;;
69026;SDS011;56080;47.594;19.116;2022-10-17T16:42:36;1673.70;;;999.90;;
69026;SDS011;56080;47.594;19.116;2022-10-17T16:47:38;1673.70;;;999.90;;
69026;SDS011;56080;47.594;19.116;2022-10-17T16:52:37;1656.20;;;999.90;;
69026;SDS011;56080;47.594;19.116;2022-10-17T16:57:36;1656.20;;;999.90;;
69026;SDS011;56080;47.594;19.116;2022-10-17T17:02:39;1642.50;;;995.90;;
69026;SDS011;56080;47.594;19.116;2022-10-17T17:07:38;1642.50;;;995.90;;
69026;SDS011;56080;47.594;19.116;2022-10-17T17:12:40;1644.50;;;999.90;;
69026;SDS011;56080;47.594;19.116;2022-10-17T17:17:48;1644.50;;;999.90;;
69026;SDS011;56080;47.594;19.116;2022-10-17T17:22:36;1660.50;;;999.90;;
69026;SDS011;56080;47.594;19.116;2022-10-17T17:27:39;1660.50;;;999.90;;
69026;SDS011;56080;47.594;19.116;2022-10-17T17:32:36;1632.70;;;950.50;;
69026;SDS011;56080;47.594;19.116;2022-10-17T17:37:37;1632.70;;;950.50;;
69026;SDS011;56080;47.594;19.116;2022-10-17T17:42:36;1601.10;;;893.40;;
69026;SDS011;56080;47.594;19.116;2022-10-17T17:47:37;1601.10;;;893.40;;
69026;SDS011;56080;47.594;19.116;2022-10-17T17:52:38;1566.00;;;881.40;;
69026;SDS011;56080;47.594;19.116;2022-10-17T17:57:39;1566.00;;;881.40;;
69026;SDS011;56080;47.594;19.116;2022-10-17T18:02:36;1513.60;;;792.90;;
69026;SDS011;56080;47.594;19.116;2022-10-17T18:07:36;1513.60;;;792.90;;
69026;SDS011;56080;47.594;19.116;2022-10-17T18:12:37;1487.60;;;773.00;;
69026;SDS011;56080;47.594;19.116;2022-10-17T18:17:37;1487.60;;;773.00;;
69026;SDS011;56080;47.594;19.116;2022-10-17T18:22:37;1436.00;;;736.90;;
69026;SDS011;56080;47.594;19.116;2022-10-17T18:27:36;1436.00;;;736.90;;
69026;SDS011;56080;47.594;19.116;2022-10-17T18:32:38;1411.90;;;737.40;;
69026;SDS011;56080;47.594;19.116;2022-10-17T18:37:36;1411.90;;;737.40;;
69026;SDS011;56080;47.594;19.116;2022-10-17T18:42:41;1492.70;;;820.40;;
69026;SDS011;56080;47.594;19.116;2022-10-17T18:47:41;1492.70;;;820.40;;
69026;SDS011;56080;47.594;19.116;2022-10-17T18:57:37;1481.70;;;829.40;;
69026;SDS011;56080;47.594;19.116;2022-10-17T19:02:39;1501.50;;;860.20;;
69026;SDS011;56080;47.594;19.116;2022-10-17T19:07:36;1501.50;;;860.20;;
69026;SDS011;56080;47.594;19.116;2022-10-17T19:12:37;1515.90;;;874.30;;
69026;SDS011;56080;47.594;19.116;2022-10-17T19:17:36;1515.90;;;874.30;;
69026;SDS011;56080;47.594;19.116;2022-10-17T19:22:37;1517.90;;;861.20;;
69026;SDS011;56080;47.594;19.116;2022-10-17T19:27:36;1517.90;;;861.20;;
69026;SDS011;56080;47.594;19.116;2022-10-17T19:32:37;1570.10;;;933.30;;
69026;SDS011;56080;47.594;19.116;2022-10-17T19:37:36;1570.10;;;933.30;;
69026;SDS011;56080;47.594;19.116;2022-10-17T19:42:36;1523.30;;;876.60;;
69026;SDS011;56080;47.594;19.116;2022-10-17T19:47:37;1523.30;;;876.60;;
69026;SDS011;56080;47.594;19.116;2022-10-17T19:52:37;1507.60;;;876.00;;
69026;SDS011;56080;47.594;19.116;2022-10-17T20:02:37;1498.80;;;939.60;;
69026;SDS011;56080;47.594;19.116;2022-10-17T20:07:38;1498.80;;;939.60;;
69026;SDS011;56080;47.594;19.116;2022-10-17T20:12:36;1483.20;;;957.10;;
69026;SDS011;56080;47.594;19.116;2022-10-17T20:17:37;1483.20;;;957.10;;
69026;SDS011;56080;47.594;19.116;2022-10-17T20:22:36;1491.80;;;952.60;;
69026;SDS011;56080;47.594;19.116;2022-10-17T20:27:38;1491.80;;;952.60;;
69026;SDS011;56080;47.594;19.116;2022-10-17T20:32:37;1474.60;;;961.00;;
69026;SDS011;56080;47.594;19.116;2022-10-17T20:37:37;1474.60;;;961.00;;
69026;SDS011;56080;47.594;19.116;2022-10-17T20:42:37;1476.80;;;928.50;;
69026;SDS011;56080;47.594;19.116;2022-10-17T20:47:48;1476.80;;;928.50;;
69026;SDS011;56080;47.594;19.116;2022-10-17T20:52:36;1447.80;;;932.10;;
69026;SDS011;56080;47.594;19.116;2022-10-17T20:57:36;1447.80;;;932.10;;
69026;SDS011;56080;47.594;19.116;2022-10-17T21:02:36;1454.00;;;971.80;;
69026;SDS011;56080;47.594;19.116;2022-10-17T21:07:36;1454.00;;;971.80;;
69026;SDS011;56080;47.594;19.116;2022-10-17T21:12:46;1451.90;;;960.30;;
69026;SDS011;56080;47.594;19.116;2022-10-17T21:17:36;1451.90;;;960.30;;
69026;SDS011;56080;47.594;19.116;2022-10-17T21:22:37;1443.40;;;962.90;;
69026;SDS011;56080;47.594;19.116;2022-10-17T21:32:42;1423.40;;;993.20;;
69026;SDS011;56080;47.594;19.116;2022-10-17T21:37:36;1423.40;;;993.20;;
69026;SDS011;56080;47.594;19.116;2022-10-17T21:42:36;1440.10;;;999.90;;
69026;SDS011;56080;47.594;19.116;2022-10-17T21:47:38;1440.10;;;999.90;;
69026;SDS011;56080;47.594;19.116;2022-10-17T21:52:36;1420.20;;;999.90;;
69026;SDS011;56080;47.594;19.116;2022-10-17T21:57:36;1420.20;;;999.90;;
69026;SDS011;56080;47.594;19.116;2022-10-17T22:02:37;1374.40;;;999.90;;
69026;SDS011;56080;47.594;19.116;2022-10-17T22:07:36;1374.40;;;999.90;;
69026;SDS011;56080;47.594;19.116;2022-10-17T22:12:36;1359.40;;;998.20;;
69026;SDS011;56080;47.594;19.116;2022-10-17T22:17:36;1359.40;;;998.20;;
69026;SDS011;56080;47.594;19.116;2022-10-17T22:22:36;1291.10;;;999.90;;
69026;SDS011;56080;47.594;19.116;2022-10-17T22:27:36;1291.10;;;999.90;;
69026;SDS011;56080;47.594;19.116;2022-10-17T22:32:37;1299.40;;;999.90;;
69026;SDS011;56080;47.594;19.116;2022-10-17T22:37:36;1299.40;;;999.90;;
69026;SDS011;56080;47.594;19.116;2022-10-17T22:42:40;1335.30;;;990.00;;
69026;SDS011;56080;47.594;19.116;2022-10-17T22:47:37;1335.30;;;990.00;;
69026;SDS011;56080;47.594;19.116;2022-10-17T22:52:37;1366.50;;;996.00;;
69026;SDS011;56080;47.594;19.116;2022-10-17T22:57:36;1366.50;;;996.00;;
69026;SDS011;56080;47.594;19.116;2022-10-17T23:02:37;1386.20;;;979.40;;
69026;SDS011;56080;47.594;19.116;2022-10-17T23:07:37;1386.20;;;979.40;;
69026;SDS011;56080;47.594;19.116;2022-10-17T23:12:36;1355.40;;;848.80;;
69026;SDS011;56080;47.594;19.116;2022-10-17T23:17:36;1355.40;;;848.80;;
69026;SDS011;56080;47.594;19.116;2022-10-17T23:22:36;1376.80;;;930.60;;
69026;SDS011;56080;47.594;19.116;2022-10-17T23:27:37;1376.80;;;930.60;;
69026;SDS011;56080;47.594;19.116;2022-10-17T23:32:37;1393.20;;;916.40;;
69026;SDS011;56080;47.594;19.116;2022-10-17T23:37:37;1393.20;;;916.40;;
69026;SDS011;56080;47.594;19.116;2022-10-17T23:42:36;1329.60;;;991.90;;
69026;SDS011;56080;47.594;19.116;2022-10-17T23:47:37;1329.60;;;991.90;;
69026;SDS011;56080;47.594;19.116;2022-10-17T23:52:36;1296.70;;;987.80;;
69026;SDS011;56080;47.594;19.116;2022-10-17T23:57:36;1296.70;;;987.80;;
